createdAt,value
2023-08-08T00:00:38.564Z,100
2023-08-08T00:01:38.826Z,100
2023-08-08T00:02:38.704Z,99.8
2023-08-08T00:03:38.589Z,100
2023-08-08T00:04:38.542Z,100
2023-08-08T00:05:38.545Z,100
2023-08-08T00:06:38.570Z,100
2023-08-08T00:07:38.563Z,100
2023-08-08T00:08:38.642Z,100
2023-08-08T00:09:38.878Z,100
2023-08-08T00:10:38.572Z,100
2023-08-08T00:11:38.553Z,100
2023-08-08T00:12:39.280Z,100
2023-08-08T00:13:38.556Z,100
2023-08-08T00:15:38.609Z,100
2023-08-08T00:16:38.565Z,100
2023-08-08T00:17:38.685Z,100
2023-08-08T00:18:39.337Z,100
2023-08-08T00:19:38.556Z,100
2023-08-08T00:20:38.542Z,100
2023-08-08T00:21:39.053Z,100
2023-08-08T00:22:38.551Z,100
2023-08-08T00:23:38.905Z,100
2023-08-08T00:24:39.144Z,100
2023-08-08T00:25:38.587Z,99.5
2023-08-08T00:26:38.583Z,100
2023-08-08T00:27:38.549Z,100
2023-08-08T00:28:38.570Z,100
2023-08-08T00:29:39.386Z,100
2023-08-08T00:30:38.566Z,100
2023-08-08T00:31:38.611Z,100
2023-08-08T00:32:38.608Z,100
2023-08-08T00:33:38.759Z,100
2023-08-08T00:34:38.545Z,100
2023-08-08T00:35:38.622Z,100
2023-08-08T00:36:38.555Z,100
2023-08-08T00:37:38.751Z,100
2023-08-08T00:38:38.555Z,100
2023-08-08T00:39:38.562Z,100
2023-08-08T00:40:38.565Z,100
2023-08-08T00:42:39.301Z,100
2023-08-08T00:43:38.567Z,100
2023-08-08T00:44:37.622Z,100
2023-08-08T00:45:39.523Z,100
2023-08-08T00:46:39.166Z,100
2023-08-08T00:47:38.609Z,100
2023-08-08T00:48:38.575Z,100
2023-08-08T00:49:38.544Z,100
2023-08-08T00:50:39.130Z,100
2023-08-08T00:52:37.643Z,100
2023-08-08T00:53:38.573Z,100
2023-08-08T00:54:38.558Z,100
2023-08-08T00:55:38.805Z,100
2023-08-08T00:56:38.559Z,100
2023-08-08T00:57:39.079Z,100
2023-08-08T00:58:38.650Z,100
2023-08-08T01:00:38.608Z,100
2023-08-08T01:01:38.583Z,100
2023-08-08T01:03:39.010Z,100
2023-08-08T01:04:38.550Z,100
2023-08-08T01:05:38.557Z,100
2023-08-08T01:06:38.569Z,100
2023-08-08T01:07:38.837Z,100
2023-08-08T01:08:39.011Z,100
2023-08-08T01:09:38.582Z,100
2023-08-08T01:10:39.271Z,100
2023-08-08T01:11:38.558Z,100
2023-08-08T01:12:38.828Z,100
2023-08-08T01:13:39.135Z,100
2023-08-08T01:15:38.560Z,100
2023-08-08T01:16:38.601Z,100
2023-08-08T01:17:38.614Z,100
2023-08-08T01:18:39.109Z,100
2023-08-08T01:19:39.178Z,100
2023-08-08T01:20:38.781Z,100
2023-08-08T01:21:38.562Z,100
2023-08-08T01:22:38.940Z,100
2023-08-08T01:23:38.597Z,100
2023-08-08T01:24:38.559Z,100
2023-08-08T01:25:38.550Z,100
2023-08-08T01:26:38.561Z,100
2023-08-08T01:27:38.570Z,100
2023-08-08T01:28:38.809Z,100
2023-08-08T01:29:38.559Z,100
2023-08-08T01:30:39.470Z,100
2023-08-08T01:31:38.595Z,100
2023-08-08T01:32:38.569Z,100
2023-08-08T01:33:39.209Z,100
2023-08-08T01:34:39.053Z,100
2023-08-08T01:35:39.137Z,100
2023-08-08T01:36:38.566Z,100
2023-08-08T01:37:38.937Z,100
2023-08-08T01:38:38.592Z,100
2023-08-08T01:39:38.590Z,100
2023-08-08T01:40:38.560Z,100
2023-08-08T01:41:38.550Z,100
2023-08-08T01:42:39.184Z,100
2023-08-08T01:43:38.576Z,100
2023-08-08T01:44:37.648Z,100
2023-08-08T01:45:38.659Z,100
2023-08-08T01:46:39.171Z,100
2023-08-08T01:47:39.101Z,100
2023-08-08T01:48:38.574Z,100
2023-08-08T01:49:38.573Z,100
2023-08-08T01:50:38.573Z,100
2023-08-08T01:51:39.370Z,100
2023-08-08T01:52:39.106Z,100
2023-08-08T01:53:38.684Z,100
2023-08-08T01:54:38.562Z,100
2023-08-08T01:55:38.595Z,100
2023-08-08T01:56:38.580Z,100
2023-08-08T01:57:38.586Z,100
2023-08-08T01:58:39.241Z,100
2023-08-08T01:59:38.563Z,100
2023-08-08T02:00:39.429Z,100
2023-08-08T02:01:38.621Z,100
2023-08-08T02:02:38.622Z,100
2023-08-08T02:03:39.209Z,100
2023-08-08T02:04:38.717Z,100
2023-08-08T02:05:38.580Z,100
2023-08-08T02:06:38.591Z,100
2023-08-08T02:07:38.594Z,100
2023-08-08T02:08:38.786Z,100
2023-08-08T02:09:39.505Z,100
2023-08-08T02:10:39.107Z,100
2023-08-08T02:11:38.572Z,100
2023-08-08T02:12:38.563Z,100
2023-08-08T02:13:38.638Z,100
2023-08-08T02:14:38.662Z,100
2023-08-08T02:15:38.672Z,100
2023-08-08T02:16:38.611Z,100
2023-08-08T02:17:38.710Z,100
2023-08-08T02:18:38.620Z,100
2023-08-08T02:19:38.744Z,100
2023-08-08T02:20:39.278Z,100
2023-08-08T02:21:38.747Z,100
2023-08-08T02:22:39.234Z,100
2023-08-08T02:23:39.158Z,100
2023-08-08T02:24:38.562Z,100
2023-08-08T02:25:38.894Z,100
2023-08-08T02:26:38.564Z,100
2023-08-08T02:27:39.013Z,100
2023-08-08T02:28:38.840Z,100
2023-08-08T02:29:38.691Z,100
2023-08-08T02:30:39.017Z,100
2023-08-08T02:31:39.089Z,100
2023-08-08T02:32:39.416Z,100
2023-08-08T02:33:38.564Z,100
2023-08-08T02:34:38.574Z,100
2023-08-08T02:35:39.257Z,100
2023-08-08T02:36:39.363Z,100
2023-08-08T02:37:38.918Z,100
2023-08-08T02:38:38.577Z,100
2023-08-08T02:39:38.576Z,100
2023-08-08T02:40:38.572Z,100
2023-08-08T02:42:39.002Z,100
2023-08-08T02:43:38.577Z,100
2023-08-08T02:44:38.579Z,100
2023-08-08T02:45:38.709Z,100
2023-08-08T02:46:39.636Z,100
2023-08-08T02:47:38.833Z,100
2023-08-08T02:48:38.654Z,100
2023-08-08T02:49:38.794Z,100
2023-08-08T02:50:38.580Z,100
2023-08-08T02:51:39.030Z,100
2023-08-08T02:52:39.227Z,100
2023-08-08T02:53:38.575Z,100
2023-08-08T02:54:38.680Z,100
2023-08-08T02:55:38.686Z,100
2023-08-08T02:56:38.653Z,100
2023-08-08T02:57:38.645Z,100
2023-08-08T02:58:38.700Z,100
2023-08-08T02:59:38.600Z,100
2023-08-08T03:00:38.648Z,100
2023-08-08T03:01:38.592Z,100
2023-08-08T03:02:38.599Z,100
2023-08-08T03:03:38.606Z,100
2023-08-08T03:04:38.638Z,100
2023-08-08T03:05:38.602Z,100
2023-08-08T03:06:38.698Z,100
2023-08-08T03:07:38.580Z,100
2023-08-08T03:08:38.580Z,100
2023-08-08T03:09:38.638Z,100
2023-08-08T03:10:38.693Z,100
2023-08-08T03:11:38.948Z,100
2023-08-08T03:12:38.589Z,100
2023-08-08T03:13:38.598Z,100
2023-08-08T03:14:37.652Z,100
2023-08-08T03:15:38.669Z,100
2023-08-08T03:16:39.301Z,100
2023-08-08T03:17:38.603Z,100
2023-08-08T03:18:39.116Z,100
2023-08-08T03:19:38.639Z,100
2023-08-08T03:20:38.709Z,100
2023-08-08T03:21:38.623Z,100
2023-08-08T03:22:37.931Z,100
2023-08-08T03:23:38.585Z,100
2023-08-08T03:24:38.918Z,100
2023-08-08T03:25:38.597Z,100
2023-08-08T03:26:38.568Z,100
2023-08-08T03:27:38.603Z,100
2023-08-08T03:28:38.576Z,100
2023-08-08T03:29:38.579Z,100
2023-08-08T03:30:38.603Z,100
2023-08-08T03:31:38.582Z,100
2023-08-08T03:32:38.648Z,100
2023-08-08T03:33:39.116Z,100
2023-08-08T03:34:39.087Z,100
2023-08-08T03:35:38.590Z,100
2023-08-08T03:36:40.930Z,100
2023-08-08T03:37:38.574Z,100
2023-08-08T03:38:38.677Z,100
2023-08-08T03:39:38.584Z,100
2023-08-08T03:40:39.189Z,100
2023-08-08T03:41:38.568Z,100
2023-08-08T03:42:38.590Z,100
2023-08-08T03:43:38.595Z,100
2023-08-08T03:44:37.816Z,100
2023-08-08T03:45:38.907Z,100
2023-08-08T03:46:38.992Z,100
2023-08-08T03:47:38.634Z,100
2023-08-08T03:48:38.588Z,100
2023-08-08T03:49:38.580Z,100
2023-08-08T03:50:38.590Z,100
2023-08-08T03:51:38.589Z,100
2023-08-08T03:52:38.590Z,100
2023-08-08T03:53:38.610Z,100
2023-08-08T03:54:39.194Z,100
2023-08-08T03:55:38.576Z,100
2023-08-08T03:56:39.472Z,100
2023-08-08T03:57:38.669Z,100
2023-08-08T03:58:38.702Z,100
2023-08-08T03:59:39.442Z,100
2023-08-08T04:00:38.671Z,100
2023-08-08T04:01:38.588Z,100
2023-08-08T04:02:39.060Z,100
2023-08-08T04:03:39.126Z,100
2023-08-08T04:04:38.601Z,100
2023-08-08T04:05:38.601Z,100
2023-08-08T04:06:38.592Z,100
2023-08-08T04:07:38.949Z,100
2023-08-08T04:08:38.597Z,100
2023-08-08T04:09:38.852Z,100
2023-08-08T04:10:39.574Z,100
2023-08-08T04:11:38.585Z,100
2023-08-08T04:12:39.225Z,100
2023-08-08T04:13:38.614Z,100
2023-08-08T04:14:38.164Z,100
2023-08-08T04:15:38.668Z,100
2023-08-08T04:16:38.907Z,100
2023-08-08T04:17:37.715Z,100
2023-08-08T04:18:38.587Z,100
2023-08-08T04:19:38.586Z,100
2023-08-08T04:20:38.659Z,100
2023-08-08T04:21:38.610Z,100
2023-08-08T04:22:38.638Z,100
2023-08-08T04:23:38.855Z,100
2023-08-08T04:24:38.591Z,100
2023-08-08T04:25:39.032Z,100
2023-08-08T04:26:38.580Z,100
2023-08-08T04:27:38.814Z,100
2023-08-08T04:28:38.591Z,100
2023-08-08T04:29:38.836Z,100
2023-08-08T04:30:39.102Z,100
2023-08-08T04:31:38.587Z,100
2023-08-08T04:32:38.630Z,100
2023-08-08T04:33:38.774Z,100
2023-08-08T04:34:38.613Z,100
2023-08-08T04:35:38.625Z,100
2023-08-08T04:36:39.166Z,100
2023-08-08T04:37:38.581Z,100
2023-08-08T04:38:39.447Z,100
2023-08-08T04:39:38.597Z,100
2023-08-08T04:40:39.555Z,100
2023-08-08T04:41:39.167Z,100
2023-08-08T04:42:38.709Z,100
2023-08-08T04:43:38.655Z,100
2023-08-08T04:44:38.000Z,100
2023-08-08T04:45:38.584Z,100
2023-08-08T04:46:38.612Z,100
2023-08-08T04:47:38.705Z,100
2023-08-08T04:48:38.804Z,100
2023-08-08T04:49:38.985Z,100
2023-08-08T04:50:38.603Z,100
2023-08-08T04:51:38.831Z,100
2023-08-08T04:52:38.809Z,100
2023-08-08T04:53:39.181Z,100
2023-08-08T04:55:38.607Z,100
2023-08-08T04:56:38.590Z,100
2023-08-08T04:57:39.253Z,100
2023-08-08T04:58:39.142Z,100
2023-08-08T04:59:38.597Z,100
2023-08-08T05:00:39.352Z,100
2023-08-08T05:01:38.583Z,100
2023-08-08T05:02:38.659Z,100
2023-08-08T05:03:39.194Z,100
2023-08-08T05:04:38.865Z,100
2023-08-08T05:05:38.819Z,100
2023-08-08T05:06:38.670Z,100
2023-08-08T05:07:38.645Z,100
2023-08-08T05:08:38.583Z,100
2023-08-08T05:09:38.588Z,100
2023-08-08T05:10:38.600Z,100
2023-08-08T05:11:39.317Z,100
2023-08-08T05:12:38.681Z,100
2023-08-08T05:13:38.610Z,100
2023-08-08T05:14:38.092Z,100
2023-08-08T05:15:38.569Z,100
2023-08-08T05:16:38.586Z,100
2023-08-08T05:17:39.142Z,100
2023-08-08T05:18:38.604Z,100
2023-08-08T05:19:38.764Z,100
2023-08-08T05:20:38.619Z,100
2023-08-08T05:21:38.599Z,100
2023-08-08T05:22:38.648Z,100
2023-08-08T05:23:39.270Z,100
2023-08-08T05:24:39.254Z,100
2023-08-08T05:25:38.596Z,100
2023-08-08T05:26:38.592Z,100
2023-08-08T05:27:38.608Z,100
2023-08-08T05:28:38.618Z,100
2023-08-08T05:29:39.377Z,100
2023-08-08T05:31:38.600Z,100
2023-08-08T05:32:38.661Z,100
2023-08-08T05:33:39.143Z,100
2023-08-08T05:34:38.810Z,100
2023-08-08T05:35:38.613Z,100
2023-08-08T05:36:38.585Z,100
2023-08-08T05:37:39.339Z,100
2023-08-08T05:38:39.385Z,100
2023-08-08T05:39:38.590Z,100
2023-08-08T05:40:38.590Z,100
2023-08-08T05:41:39.210Z,100
2023-08-08T05:42:39.330Z,100
2023-08-08T05:43:39.099Z,100
2023-08-08T05:44:38.381Z,100
2023-08-08T05:45:38.600Z,100
2023-08-08T05:46:38.637Z,100
2023-08-08T05:47:38.645Z,100
2023-08-08T05:48:38.615Z,100
2023-08-08T05:49:38.603Z,100
2023-08-08T05:50:38.599Z,100
2023-08-08T05:51:39.102Z,100
2023-08-08T05:52:38.329Z,100
2023-08-08T05:53:38.598Z,100
2023-08-08T05:54:39.365Z,100
2023-08-08T05:55:38.630Z,100
2023-08-08T05:56:38.624Z,100
2023-08-08T05:57:39.220Z,100
2023-08-08T05:58:38.873Z,100
2023-08-08T05:59:38.612Z,100
2023-08-08T06:00:38.800Z,100
2023-08-08T06:01:38.722Z,100
2023-08-08T06:02:39.525Z,100
2023-08-08T06:03:39.229Z,100
2023-08-08T06:04:39.132Z,100
2023-08-08T06:05:38.593Z,100
2023-08-08T06:06:38.679Z,100
2023-08-08T06:07:38.631Z,100
2023-08-08T06:09:38.765Z,100
2023-08-08T06:10:39.083Z,100
2023-08-08T06:11:39.004Z,100
2023-08-08T06:12:39.118Z,100
2023-08-08T06:13:40.074Z,100
2023-08-08T06:14:37.659Z,100
2023-08-08T06:15:38.602Z,100
2023-08-08T06:16:38.686Z,100
2023-08-08T06:17:39.013Z,100
2023-08-08T06:18:38.608Z,100
2023-08-08T06:19:38.981Z,100
2023-08-08T06:20:38.671Z,100
2023-08-08T06:21:38.629Z,100
2023-08-08T06:22:39.548Z,100
2023-08-08T06:23:38.591Z,100
2023-08-08T06:24:39.313Z,100
2023-08-08T06:25:38.843Z,100
2023-08-08T06:26:38.600Z,100
2023-08-08T06:27:38.637Z,100
2023-08-08T06:28:38.595Z,100
2023-08-08T06:29:39.181Z,100
2023-08-08T06:30:38.912Z,100
2023-08-08T06:31:39.261Z,100
2023-08-08T06:32:38.985Z,100
2023-08-08T06:33:39.279Z,100
2023-08-08T06:34:39.505Z,100
2023-08-08T06:35:38.753Z,100
2023-08-08T06:36:39.200Z,100
2023-08-08T06:37:38.947Z,100
2023-08-08T06:38:38.720Z,100
2023-08-08T06:39:38.615Z,100
2023-08-08T06:40:39.048Z,100
2023-08-08T06:41:38.606Z,100
2023-08-08T06:42:38.597Z,100
2023-08-08T06:43:38.614Z,100
2023-08-08T06:44:44.879Z,100
2023-08-08T06:45:39.007Z,99.9
2023-08-08T06:46:38.593Z,99.7
2023-08-08T06:47:39.547Z,99.4
2023-08-08T06:48:38.610Z,99
2023-08-08T06:49:39.121Z,99.1
2023-08-08T06:50:39.220Z,99
2023-08-08T06:51:39.064Z,99.2
2023-08-08T06:52:39.025Z,99.4
2023-08-08T06:53:38.610Z,98.7
2023-08-08T06:54:39.051Z,97.9
2023-08-08T06:55:38.861Z,97.6
2023-08-08T06:56:38.669Z,97.5
2023-08-08T06:57:39.364Z,97.7
2023-08-08T06:58:38.795Z,97.4
2023-08-08T06:59:39.156Z,97.6
2023-08-08T07:00:38.592Z,98
2023-08-08T07:01:38.641Z,97.4
2023-08-08T07:02:38.713Z,98.5
2023-08-08T07:03:38.749Z,98.3
2023-08-08T07:04:39.022Z,98.8
2023-08-08T07:05:38.638Z,98.9
2023-08-08T07:06:38.619Z,99.3
2023-08-08T07:07:38.603Z,97.9
2023-08-08T07:08:38.604Z,97.5
2023-08-08T07:09:38.808Z,96.9
2023-08-08T07:10:39.096Z,96.7
2023-08-08T07:11:38.608Z,96.5
2023-08-08T07:12:38.900Z,96.9
2023-08-08T07:13:38.669Z,96.9
2023-08-08T07:14:37.654Z,96.4
2023-08-08T07:15:39.441Z,96.9
2023-08-08T07:16:39.426Z,96.7
2023-08-08T07:17:38.703Z,96.6
2023-08-08T07:18:39.488Z,97.2
2023-08-08T07:19:38.609Z,96.4
2023-08-08T07:20:38.597Z,95.9
2023-08-08T07:21:38.607Z,95
2023-08-08T07:22:38.600Z,94.9
2023-08-08T07:23:39.298Z,95.8
2023-08-08T07:24:39.027Z,95.2
2023-08-08T07:25:38.782Z,95.2
2023-08-08T07:26:38.636Z,96
2023-08-08T07:27:38.977Z,94.8
2023-08-08T07:28:38.665Z,95.1
2023-08-08T07:29:38.592Z,92.9
2023-08-08T07:30:39.024Z,92.3
2023-08-08T07:31:38.678Z,92
2023-08-08T07:33:38.822Z,90.2
2023-08-08T07:34:38.939Z,88.7
2023-08-08T07:35:38.844Z,89
2023-08-08T07:36:38.880Z,89.4
2023-08-08T07:37:39.088Z,88.8
2023-08-08T07:38:39.232Z,88.1
2023-08-08T07:39:39.039Z,87.8
2023-08-08T07:40:38.624Z,89.2
2023-08-08T07:41:38.643Z,88.4
2023-08-08T07:42:38.616Z,89.3
2023-08-08T07:43:38.637Z,89.1
2023-08-08T07:44:38.426Z,88.3
2023-08-08T07:45:38.612Z,89.1
2023-08-08T07:46:38.619Z,88
2023-08-08T07:47:38.643Z,88.3
2023-08-08T07:48:39.273Z,88.2
2023-08-08T07:49:38.637Z,87.8
2023-08-08T07:50:38.611Z,87.5
2023-08-08T07:51:38.624Z,88.1
2023-08-08T07:52:38.602Z,87.6
2023-08-08T07:53:38.604Z,88.2
2023-08-08T07:54:39.017Z,87.8
2023-08-08T07:55:39.221Z,86.5
2023-08-08T07:56:39.234Z,86.4
2023-08-08T07:57:38.630Z,85.7
2023-08-08T07:58:38.605Z,84.8
2023-08-08T07:59:38.619Z,83.7
2023-08-08T08:00:38.622Z,83.8
2023-08-08T08:01:39.338Z,84.2
2023-08-08T08:02:38.724Z,84.4
2023-08-08T08:03:38.686Z,83.6
2023-08-08T08:04:38.644Z,84.1
2023-08-08T08:05:38.657Z,84.3
2023-08-08T08:06:39.215Z,84
2023-08-08T08:07:38.606Z,85.4
2023-08-08T08:08:38.635Z,85
2023-08-08T08:09:38.611Z,85
2023-08-08T08:10:38.811Z,84.7
2023-08-08T08:11:39.069Z,84.6
2023-08-08T08:12:38.627Z,83.9
2023-08-08T08:13:38.623Z,84.3
2023-08-08T08:14:38.234Z,84.6
2023-08-08T08:15:38.609Z,85
2023-08-08T08:16:38.908Z,84
2023-08-08T08:17:38.711Z,84
2023-08-08T08:18:38.716Z,84.9
2023-08-08T08:19:38.671Z,84.2
2023-08-08T08:21:38.813Z,84.9
2023-08-08T08:22:37.717Z,84.9
2023-08-08T08:23:39.027Z,85.2
2023-08-08T08:24:38.634Z,84.9
2023-08-08T08:25:39.252Z,85.7
2023-08-08T08:26:38.644Z,85.2
2023-08-08T08:27:38.632Z,85.6
2023-08-08T08:28:39.288Z,83.9
2023-08-08T08:29:39.136Z,82.8
2023-08-08T08:30:38.678Z,82.7
2023-08-08T08:31:38.656Z,82
2023-08-08T08:33:38.653Z,81.5
2023-08-08T08:34:38.992Z,82.5
2023-08-08T08:35:39.065Z,83.2
2023-08-08T08:36:38.609Z,84.4
2023-08-08T08:37:38.893Z,83.3
2023-08-08T08:38:38.621Z,82.4
2023-08-08T08:39:38.841Z,81.7
2023-08-08T08:40:39.133Z,81.6
2023-08-08T08:41:38.879Z,81.5
2023-08-08T08:42:38.646Z,80.6
2023-08-08T08:43:38.618Z,81.5
2023-08-08T08:46:38.638Z,80.4
2023-08-08T08:47:38.679Z,79.2
2023-08-08T08:48:38.636Z,80.5
2023-08-08T08:49:38.753Z,80.2
2023-08-08T08:50:38.648Z,80.4
2023-08-08T08:51:38.616Z,79.9
2023-08-08T08:52:38.632Z,80.5
2023-08-08T08:53:39.195Z,80.7
2023-08-08T08:54:39.486Z,80.5
2023-08-08T08:55:38.624Z,79.8
2023-08-08T08:56:38.649Z,78.7
2023-08-08T08:57:38.667Z,79.1
2023-08-08T08:58:38.640Z,79.1
2023-08-08T08:59:38.628Z,78.5
2023-08-08T09:00:38.720Z,79.3
2023-08-08T09:01:38.788Z,78.6
2023-08-08T09:03:38.703Z,78.9
2023-08-08T09:04:38.825Z,78.7
2023-08-08T09:05:39.532Z,77.8
2023-08-08T09:06:38.615Z,77.7
2023-08-08T09:07:39.393Z,78.9
2023-08-08T09:08:38.689Z,76.9
2023-08-08T09:09:39.145Z,77.4
2023-08-08T09:10:39.460Z,76.6
2023-08-08T09:11:39.115Z,76.8
2023-08-08T09:12:38.616Z,78
2023-08-08T09:13:38.646Z,77.7
2023-08-08T09:15:38.731Z,77.3
2023-08-08T09:16:38.694Z,77.6
2023-08-08T09:17:48.054Z,77.2
2023-08-08T09:18:38.861Z,78.4
2023-08-08T09:19:38.678Z,78.7
2023-08-08T09:20:38.634Z,79.2
2023-08-08T09:21:38.741Z,78.4
2023-08-08T09:22:39.388Z,77.5
2023-08-08T09:23:38.621Z,77.5
2023-08-08T09:24:38.639Z,76.4
2023-08-08T09:25:39.475Z,75.7
2023-08-08T09:26:39.141Z,74.6
2023-08-08T09:27:38.737Z,75.6
2023-08-08T09:28:38.620Z,75.4
2023-08-08T09:29:39.181Z,75.8
2023-08-08T09:30:38.645Z,75.5
2023-08-08T09:31:38.653Z,74.3
2023-08-08T09:32:38.766Z,73.4
2023-08-08T09:33:39.414Z,75.5
2023-08-08T09:34:39.184Z,76.1
2023-08-08T09:35:38.733Z,76.7
2023-08-08T09:36:39.435Z,75.9
2023-08-08T09:37:39.148Z,75.6
2023-08-08T09:38:38.653Z,75.7
2023-08-08T09:39:38.657Z,75.7
2023-08-08T09:40:39.349Z,75
2023-08-08T09:41:39.451Z,73.9
2023-08-08T09:42:38.841Z,75.4
2023-08-08T09:43:39.112Z,74.4
2023-08-08T09:44:38.106Z,74.7
2023-08-08T09:45:38.715Z,75.8
2023-08-08T09:46:39.417Z,74.5
2023-08-08T09:47:38.905Z,73.8
2023-08-08T09:48:38.647Z,73.8
2023-08-08T09:49:38.939Z,74
2023-08-08T09:50:38.660Z,74.1
2023-08-08T09:51:38.652Z,74.5
2023-08-08T09:52:38.816Z,73.9
2023-08-08T09:53:38.855Z,73.5
2023-08-08T09:54:38.641Z,72.1
2023-08-08T09:55:39.483Z,72.6
2023-08-08T09:56:38.891Z,71.9
2023-08-08T09:57:39.282Z,71.9
2023-08-08T09:58:38.641Z,71.4
2023-08-08T09:59:38.650Z,71.6
2023-08-08T10:00:38.643Z,70.4
2023-08-08T10:02:39.522Z,70.6
2023-08-08T10:03:38.797Z,67.9
2023-08-08T10:04:38.640Z,70.2
2023-08-08T10:05:39.323Z,71.3
2023-08-08T10:06:38.897Z,70.3
2023-08-08T10:07:38.661Z,71.9
2023-08-08T10:08:39.127Z,70
2023-08-08T10:09:38.671Z,69.7
2023-08-08T10:10:38.672Z,68.9
2023-08-08T10:11:38.675Z,68.4
2023-08-08T10:12:39.384Z,68.6
2023-08-08T10:13:38.696Z,68.1
2023-08-08T10:14:38.281Z,67.8
2023-08-08T10:15:39.194Z,68.4
2023-08-08T10:16:38.678Z,67.3
2023-08-08T10:17:38.679Z,66.8
2023-08-08T10:18:38.647Z,67.8
2023-08-08T10:19:39.228Z,68.5
2023-08-08T10:20:38.663Z,68.4
2023-08-08T10:21:38.659Z,68
2023-08-08T10:22:39.040Z,68.1
2023-08-08T10:23:39.012Z,67.7
2023-08-08T10:24:38.860Z,67.2
2023-08-08T10:25:38.814Z,66.3
2023-08-08T10:26:39.204Z,66.3
2023-08-08T10:27:38.658Z,66.2
2023-08-08T10:28:39.137Z,66.8
2023-08-08T10:29:39.140Z,67.2
2023-08-08T10:30:38.947Z,65.7
2023-08-08T10:31:39.223Z,66.5
2023-08-08T10:32:39.005Z,65.6
2023-08-08T10:33:38.638Z,67
2023-08-08T10:35:38.660Z,66
2023-08-08T10:36:38.654Z,64
2023-08-08T10:37:38.834Z,64.3
2023-08-08T10:38:38.679Z,64.2
2023-08-08T10:39:39.106Z,64.8
2023-08-08T10:40:38.680Z,65.9
2023-08-08T10:41:39.080Z,64.6
2023-08-08T10:42:38.635Z,66.1
2023-08-08T10:43:38.646Z,67.3
2023-08-08T10:45:38.666Z,66.1
2023-08-08T10:46:38.802Z,65.3
2023-08-08T10:47:38.791Z,63.8
2023-08-08T10:48:38.683Z,65
2023-08-08T10:49:38.654Z,64.3
2023-08-08T10:50:38.660Z,64
2023-08-08T10:51:38.704Z,64
2023-08-08T10:52:37.726Z,63.9
2023-08-08T10:53:39.381Z,63.6
2023-08-08T10:54:38.976Z,63.6
2023-08-08T10:55:39.232Z,62.4
2023-08-08T10:56:38.632Z,62.5
2023-08-08T10:57:39.182Z,64
2023-08-08T10:58:38.726Z,64.6
2023-08-08T11:00:38.684Z,63.3
2023-08-08T11:01:39.345Z,62.1
2023-08-08T11:02:38.674Z,62.4
2023-08-08T11:03:38.640Z,61.9
2023-08-08T11:04:38.654Z,63.1
2023-08-08T11:05:39.161Z,62.9
2023-08-08T11:06:39.457Z,62.4
2023-08-08T11:07:39.539Z,62.7
2023-08-08T11:08:38.669Z,61.9
2023-08-08T11:09:38.659Z,63.7
2023-08-08T11:10:38.691Z,64.3
2023-08-08T11:11:38.678Z,63.3
2023-08-08T11:12:38.645Z,63.1
2023-08-08T11:13:38.824Z,63.9
2023-08-08T11:14:38.208Z,63.7
2023-08-08T11:15:39.333Z,63.7
2023-08-08T11:16:38.667Z,63.5
2023-08-08T11:18:39.636Z,64.2
2023-08-08T11:19:39.291Z,63.5
2023-08-08T11:20:39.195Z,63.3
2023-08-08T11:21:38.649Z,63.9
2023-08-08T11:22:38.718Z,63.5
2023-08-08T11:23:38.787Z,63.3
2023-08-08T11:24:39.024Z,64.3
2023-08-08T11:25:39.299Z,65
2023-08-08T11:26:38.679Z,64.3
2023-08-08T11:28:38.657Z,63.7
2023-08-08T11:29:38.834Z,64
2023-08-08T11:30:38.651Z,63.9
2023-08-08T11:31:38.682Z,63.1
2023-08-08T11:32:38.672Z,63.3
2023-08-08T11:33:39.341Z,63.5
2023-08-08T11:34:38.678Z,62.6
2023-08-08T11:35:38.658Z,61.6
2023-08-08T11:36:38.660Z,62.2
2023-08-08T11:37:39.268Z,60.7
2023-08-08T11:38:38.669Z,60.8
2023-08-08T11:39:38.708Z,60.8
2023-08-08T11:40:38.752Z,60.8
2023-08-08T11:41:38.666Z,60.5
2023-08-08T11:42:39.237Z,61.2
2023-08-08T11:43:38.666Z,62.1
2023-08-08T11:44:37.720Z,62.4
2023-08-08T11:45:38.675Z,62.2
2023-08-08T11:46:38.730Z,62.3
2023-08-08T11:47:39.103Z,62.3
2023-08-08T11:48:38.682Z,62.1
2023-08-08T11:49:39.434Z,62.1
2023-08-08T11:50:38.664Z,62.1
2023-08-08T11:51:39.108Z,61.9
2023-08-08T11:52:39.371Z,61.9
2023-08-08T11:54:38.712Z,61.5
2023-08-08T11:55:38.679Z,61.2
2023-08-08T11:56:38.663Z,60.8
2023-08-08T11:57:38.658Z,61.3
2023-08-08T11:58:38.843Z,61.3
2023-08-08T11:59:38.668Z,59.6
2023-08-08T12:00:38.905Z,58.2
2023-08-08T12:01:39.161Z,58.4
2023-08-08T12:02:39.274Z,58.2
2023-08-08T12:03:38.889Z,57.9
2023-08-08T12:04:39.082Z,57.4
2023-08-08T12:05:39.460Z,57.4
2023-08-08T12:06:38.675Z,57.2
2023-08-08T12:07:38.680Z,58.4
2023-08-08T12:08:38.741Z,57.4
2023-08-08T12:09:38.706Z,59.4
2023-08-08T12:10:38.689Z,59.9
2023-08-08T12:11:39.164Z,59.8
2023-08-08T12:12:40.029Z,60.3
2023-08-08T12:13:39.356Z,60.1
2023-08-08T12:14:46.253Z,58.8
2023-08-08T12:15:38.682Z,58.7
2023-08-08T12:16:38.710Z,59.4
2023-08-08T12:17:39.511Z,59.4
2023-08-08T12:19:39.232Z,58.8
2023-08-08T12:20:38.677Z,59.5
2023-08-08T12:21:39.032Z,60.2
2023-08-08T12:22:39.252Z,59.6
2023-08-08T12:23:38.740Z,59.6
2023-08-08T12:25:38.665Z,60.5
2023-08-08T12:26:38.982Z,59.8
2023-08-08T12:27:38.865Z,59.9
2023-08-08T12:28:38.691Z,59.1
2023-08-08T12:29:39.289Z,58.1
2023-08-08T12:30:38.676Z,59.5
2023-08-08T12:31:38.677Z,58.8
2023-08-08T12:32:38.687Z,59.4
2023-08-08T12:33:39.263Z,60
2023-08-08T12:35:38.692Z,60.5
2023-08-08T12:36:38.764Z,59.3
2023-08-08T12:37:39.585Z,59.8
2023-08-08T12:38:38.705Z,59.5
2023-08-08T12:39:39.330Z,59.1
2023-08-08T12:40:38.813Z,58.6
2023-08-08T12:41:39.330Z,59.1
2023-08-08T12:42:39.110Z,59.1
2023-08-08T12:43:39.339Z,57.5
2023-08-08T12:44:37.969Z,59.5
2023-08-08T12:45:38.689Z,60
2023-08-08T12:46:38.727Z,58.9
2023-08-08T12:47:39.027Z,58.7
2023-08-08T12:48:38.739Z,59.4
2023-08-08T12:49:38.929Z,60.3
2023-08-08T12:50:38.703Z,59.9
2023-08-08T12:51:38.713Z,60.1
2023-08-08T12:52:39.245Z,60.3
2023-08-08T12:53:38.677Z,60.5
2023-08-08T12:54:38.883Z,59.6
2023-08-08T12:55:38.676Z,59.1
2023-08-08T12:56:38.677Z,59
2023-08-08T12:57:38.822Z,59.5
2023-08-08T12:58:39.604Z,60.3
2023-08-08T13:00:39.651Z,60
2023-08-08T13:01:39.073Z,60.7
2023-08-08T13:02:38.781Z,58.7
2023-08-08T13:03:40.163Z,60.5
2023-08-08T13:04:39.289Z,60.6
2023-08-08T13:05:39.403Z,59.7
2023-08-08T13:07:39.221Z,60.1
2023-08-08T13:08:38.989Z,60.5
2023-08-08T13:09:38.674Z,59.9
2023-08-08T13:10:38.770Z,59.5
2023-08-08T13:11:38.702Z,58.5
2023-08-08T13:12:38.692Z,58.9
2023-08-08T13:13:38.689Z,58.2
2023-08-08T13:19:45.798Z,59.5
2023-08-08T13:20:45.274Z,60.1
2023-08-08T13:22:37.750Z,60.1
2023-08-08T13:23:38.680Z,60
2023-08-08T13:24:38.699Z,59.8
2023-08-08T13:25:38.720Z,59.7
2023-08-08T13:26:39.538Z,59
2023-08-08T13:27:38.739Z,58.5
2023-08-08T13:28:39.654Z,59.1
2023-08-08T13:29:38.684Z,58
2023-08-08T13:30:38.718Z,59.4
2023-08-08T13:31:38.693Z,60.1
2023-08-08T13:32:39.533Z,60.9
2023-08-08T13:33:38.772Z,59.1
2023-08-08T13:34:38.689Z,58.7
2023-08-08T13:35:38.970Z,59.3
2023-08-08T13:37:39.050Z,60
2023-08-08T13:38:38.772Z,61.8
2023-08-08T13:39:38.700Z,60.4
2023-08-08T13:41:39.102Z,60.9
2023-08-08T13:42:38.870Z,59.8
2023-08-08T13:43:38.711Z,60.7
2023-08-08T13:44:37.772Z,60
2023-08-08T13:45:45.361Z,61.2
2023-08-08T13:46:45.331Z,60.7
2023-08-08T13:48:39.022Z,61.1
2023-08-08T13:49:38.721Z,60.8
2023-08-08T13:50:38.726Z,60.3
2023-08-08T13:51:38.709Z,60.8
2023-08-08T13:52:38.710Z,61.6
2023-08-08T13:53:39.289Z,60.8
2023-08-08T13:54:39.165Z,62
2023-08-08T13:55:39.149Z,61.5
2023-08-08T13:56:37.761Z,61.9
2023-08-08T13:58:39.155Z,61.4
2023-08-08T13:59:38.699Z,61.5
2023-08-08T14:00:39.143Z,61.4
2023-08-08T14:01:38.717Z,61.3
2023-08-08T14:02:38.775Z,61.4
2023-08-08T14:03:38.772Z,62.1
2023-08-08T14:04:39.251Z,62.8
2023-08-08T14:05:38.718Z,62.6
2023-08-08T14:06:38.733Z,62.9
2023-08-08T14:08:38.692Z,62.4
2023-08-08T14:09:38.716Z,62.7
2023-08-08T14:10:38.708Z,62.8
2023-08-08T14:11:38.709Z,62.2
2023-08-08T14:12:38.738Z,62.7
2023-08-08T14:13:38.819Z,61.2
2023-08-08T14:14:38.191Z,62.2